Weather at Front Royal Warren County Airport

Public forecast

Using degrees Fahrenheit for public forecast. Weather courtesy of forecast.io.

Current aviation weather report (METAR) for Front Royal Warren County Airport

Retrieved 2020/09/27 12:15 UTC (0 seconds ago):

KFRR 271215Z AUTO 00000KT 1/4SM OVC002 13/13 A3002 RMK AO1

Closest aviation forecast (TAF) to Front Royal Warren County Airport

Closest forecast is Eastern WV Regional Airport/Shepherd Field, 31.7 nm (58.6 km) NNE. Retrieved 2020/09/27 12:36 UTC (0 seconds ago):

TAF KMRB 271132Z 2712/2812 VRB03KT 1/4SM FG OVC002 FM271300 00000KT 2SM BR SCT003 FM271400 00000KT P6SM SCT025 FM280400 17004KT 6SM BR BKN050 FM280800 17004KT 2SM BR BKN015 FM281000 18004KT 1SM BR BKN015